sensor_id;sensor_type;location;lat;lon;timestamp;pressure;altitude;pressure_sealevel;temperature;humidity
33155;BME280;19511;42.682;23.332;2023-03-04T00:00:29;95181.00;;;5.47;100.00
33155;BME280;19511;42.682;23.332;2023-03-04T00:02:55;95205.88;;;5.65;100.00
33155;BME280;19511;42.682;23.332;2023-03-04T00:05:24;95174.66;;;5.39;100.00
33155;BME280;19511;42.682;23.332;2023-03-04T00:07:49;95112.38;;;5.02;100.00
33155;BME280;19511;42.682;23.332;2023-03-04T00:10:19;95199.84;;;5.48;100.00
33155;BME280;19511;42.682;23.332;2023-03-04T00:12:44;95206.25;;;5.63;100.00
33155;BME280;19511;42.682;23.332;2023-03-04T00:15:10;95210.84;;;5.52;100.00
33155;BME280;19511;42.682;23.332;2023-03-04T00:17:35;95199.06;;;5.48;100.00
33155;BME280;19511;42.682;23.332;2023-03-04T00:20:01;95199.06;;;5.48;100.00
33155;BME280;19511;42.682;23.332;2023-03-04T00:22:26;95029.53;;;4.44;100.00
33155;BME280;19511;42.682;23.332;2023-03-04T00:24:51;95178.88;;;5.67;100.00
33155;BME280;19511;42.682;23.332;2023-03-04T00:27:17;95166.91;;;5.48;100.00
33155;BME280;19511;42.682;23.332;2023-03-04T00:29:42;95152.03;;;5.49;100.00
33155;BME280;19511;42.682;23.332;2023-03-04T00:32:08;95182.81;;;5.69;100.00
33155;BME280;19511;42.682;23.332;2023-03-04T00:34:36;95185.13;;;5.67;100.00
33155;BME280;19511;42.682;23.332;2023-03-04T00:37:02;95187.06;;;5.63;100.00
33155;BME280;19511;42.682;23.332;2023-03-04T00:39:28;95060.56;;;4.89;100.00
33155;BME280;19511;42.682;23.332;2023-03-04T00:41:54;95176.00;;;5.56;100.00
33155;BME280;19511;42.682;23.332;2023-03-04T00:44:19;95178.88;;;5.67;100.00
33155;BME280;19511;42.682;23.332;2023-03-04T00:46:49;95171.72;;;5.59;100.00
33155;BME280;19511;42.682;23.332;2023-03-04T00:49:14;95178.09;;;5.70;100.00
33155;BME280;19511;42.682;23.332;2023-03-04T00:51:43;95165.84;;;5.56;100.00
33155;BME280;19511;42.682;23.332;2023-03-04T00:54:08;95157.13;;;5.47;100.00
33155;BME280;19511;42.682;23.332;2023-03-04T00:56:34;95173.72;;;5.62;100.00
33155;BME280;19511;42.682;23.332;2023-03-04T00:58:59;95165.00;;;5.52;100.00
33155;BME280;19511;42.682;23.332;2023-03-04T01:01:25;95083.44;;;5.04;100.00
33155;BME280;19511;42.682;23.332;2023-03-04T01:03:50;95173.34;;;5.63;100.00
33155;BME280;19511;42.682;23.332;2023-03-04T01:06:16;95174.56;;;5.69;100.00
33155;BME280;19511;42.682;23.332;2023-03-04T01:11:23;95173.38;;;5.67;100.00
33155;BME280;19511;42.682;23.332;2023-03-04T01:13:49;95166.22;;;5.59;100.00
33155;BME280;19511;42.682;23.332;2023-03-04T01:16:17;95169.81;;;5.63;100.00
33155;BME280;19511;42.682;23.332;2023-03-04T01:18:43;95072.03;;;5.02;100.00
33155;BME280;19511;42.682;23.332;2023-03-04T01:21:09;95166.22;;;5.59;100.00
33155;BME280;19511;42.682;23.332;2023-03-04T01:23:34;95168.66;;;5.64;100.00
33155;BME280;19511;42.682;23.332;2023-03-04T01:26:00;95122.97;;;5.41;100.00
33155;BME280;19511;42.682;23.332;2023-03-04T01:28:25;95149.72;;;5.51;100.00
33155;BME280;19511;42.682;23.332;2023-03-04T01:30:51;95163.44;;;5.51;100.00
33155;BME280;19511;42.682;23.332;2023-03-04T01:33:16;95149.03;;;5.62;100.00
33155;BME280;19511;42.682;23.332;2023-03-04T01:35:42;95073.38;;;5.16;100.00
33155;BME280;19511;42.682;23.332;2023-03-04T01:38:07;95144.63;;;5.53;100.00
33155;BME280;19511;42.682;23.332;2023-03-04T01:40:32;95136.38;;;5.53;100.00
33155;BME280;19511;42.682;23.332;2023-03-04T01:42:58;95141.94;;;5.61;100.00
33155;BME280;19511;42.682;23.332;2023-03-04T01:45:24;95146.72;;;5.67;100.00
33155;BME280;19511;42.682;23.332;2023-03-04T01:47:50;95138.84;;;5.66;100.00
33155;BME280;19511;42.682;23.332;2023-03-04T01:50:34;95037.25;;;5.10;100.00
33155;BME280;19511;42.682;23.332;2023-03-04T01:53:01;95135.78;;;5.71;100.00
33155;BME280;19511;42.682;23.332;2023-03-04T01:55:27;95126.09;;;5.43;100.00
33155;BME280;19511;42.682;23.332;2023-03-04T01:57:53;95099.28;;;5.26;100.00
33155;BME280;19511;42.682;23.332;2023-03-04T02:00:30;95129.16;;;5.34;100.00
33155;BME280;19511;42.682;23.332;2023-03-04T02:03:01;95131.25;;;5.48;100.00
33155;BME280;19511;42.682;23.332;2023-03-04T02:05:29;95137.59;;;5.52;100.00
33155;BME280;19511;42.682;23.332;2023-03-04T02:07:56;95072.84;;;5.06;100.00
33155;BME280;19511;42.682;23.332;2023-03-04T02:10:23;95149.63;;;5.44;100.00
33155;BME280;19511;42.682;23.332;2023-03-04T02:12:48;95115.81;;;5.33;100.00
33155;BME280;19511;42.682;23.332;2023-03-04T02:15:15;95038.03;;;4.69;100.00
33155;BME280;19511;42.682;23.332;2023-03-04T02:17:41;95118.88;;;5.24;100.00
33155;BME280;19511;42.682;23.332;2023-03-04T02:20:33;95133.00;;;5.26;100.00
33155;BME280;19511;42.682;23.332;2023-03-04T02:25:32;95110.94;;;5.12;100.00
33155;BME280;19511;42.682;23.332;2023-03-04T02:28:00;95116.75;;;5.10;100.00
33155;BME280;19511;42.682;23.332;2023-03-04T02:30:26;95132.91;;;5.19;100.00
33155;BME280;19511;42.682;23.332;2023-03-04T02:32:52;95123.41;;;5.05;100.00
33155;BME280;19511;42.682;23.332;2023-03-04T02:35:19;95126.88;;;5.02;100.00
33155;BME280;19511;42.682;23.332;2023-03-04T02:37:45;95020.38;;;4.33;100.00
33155;BME280;19511;42.682;23.332;2023-03-04T02:40:17;95123.72;;;5.00;100.00
33155;BME280;19511;42.682;23.332;2023-03-04T02:42:46;95102.78;;;4.85;100.00
33155;BME280;19511;42.682;23.332;2023-03-04T02:45:47;95119.75;;;4.94;100.00
33155;BME280;19511;42.682;23.332;2023-03-04T02:48:15;95120.91;;;4.93;100.00
33155;BME280;19511;42.682;23.332;2023-03-04T02:50:44;95124.78;;;4.92;100.00
33155;BME280;19511;42.682;23.332;2023-03-04T02:53:10;95104.25;;;4.75;100.00
33155;BME280;19511;42.682;23.332;2023-03-04T02:55:36;95127.91;;;4.90;100.00
33155;BME280;19511;42.682;23.332;2023-03-04T02:58:01;95114.59;;;4.89;100.00
33155;BME280;19511;42.682;23.332;2023-03-04T03:00:27;95102.44;;;4.90;100.00
33155;BME280;19511;42.682;23.332;2023-03-04T03:02:53;95106.25;;;4.78;100.00
33155;BME280;19511;42.682;23.332;2023-03-04T03:05:19;95116.78;;;4.76;100.00
33155;BME280;19511;42.682;23.332;2023-03-04T03:07:44;95111.63;;;4.71;100.00
33155;BME280;19511;42.682;23.332;2023-03-04T03:10:10;95102.47;;;4.60;100.00
33155;BME280;19511;42.682;23.332;2023-03-04T03:12:36;95123.34;;;4.68;100.00
33155;BME280;19511;42.682;23.332;2023-03-04T03:15:01;95020.41;;;4.02;100.00
33155;BME280;19511;42.682;23.332;2023-03-04T03:17:27;95041.47;;;3.98;100.00
33155;BME280;19511;42.682;23.332;2023-03-04T03:19:52;95127.72;;;4.42;100.00
33155;BME280;19511;42.682;23.332;2023-03-04T03:22:18;95128.75;;;4.34;100.00
33155;BME280;19511;42.682;23.332;2023-03-04T03:24:43;95127.09;;;4.25;100.00
33155;BME280;19511;42.682;23.332;2023-03-04T03:27:12;95111.91;;;4.01;100.00
33155;BME280;19511;42.682;23.332;2023-03-04T03:29:37;95117.19;;;3.90;100.00
33155;BME280;19511;42.682;23.332;2023-03-04T03:32:03;95108.88;;;3.83;100.00
33155;BME280;19511;42.682;23.332;2023-03-04T03:34:28;95110.06;;;3.82;100.00
33155;BME280;19511;42.682;23.332;2023-03-04T03:36:54;95073.28;;;3.56;100.00
33155;BME280;19511;42.682;23.332;2023-03-04T03:39:20;95108.47;;;3.81;100.00
33155;BME280;19511;42.682;23.332;2023-03-04T03:41:46;95070.56;;;3.56;100.00
33155;BME280;19511;42.682;23.332;2023-03-04T03:44:15;95105.31;;;3.79;100.00
33155;BME280;19511;42.682;23.332;2023-03-04T03:46:43;95022.53;;;3.32;100.00
33155;BME280;19511;42.682;23.332;2023-03-04T03:49:12;95077.88;;;3.75;100.00
33155;BME280;19511;42.682;23.332;2023-03-04T03:51:41;95100.00;;;3.90;100.00
33155;BME280;19511;42.682;23.332;2023-03-04T03:54:07;95116.31;;;3.83;100.00
33155;BME280;19511;42.682;23.332;2023-03-04T03:56:36;94985.09;;;2.86;100.00
33155;BME280;19511;42.682;23.332;2023-03-04T03:59:02;95044.63;;;3.23;100.00
33155;BME280;19511;42.682;23.332;2023-03-04T04:01:27;95100.31;;;3.62;100.00
33155;BME280;19511;42.682;23.332;2023-03-04T04:03:53;95040.94;;;3.12;100.00
33155;BME280;19511;42.682;23.332;2023-03-04T04:06:18;95108.75;;;3.49;100.00
33155;BME280;19511;42.682;23.332;2023-03-04T04:08:44;95077.69;;;3.38;100.00
33155;BME280;19511;42.682;23.332;2023-03-04T04:11:11;95094.75;;;3.54;100.00
33155;BME280;19511;42.682;23.332;2023-03-04T04:13:40;95085.78;;;3.31;100.00
33155;BME280;19511;42.682;23.332;2023-03-04T04:16:06;95094.41;;;3.33;100.00
33155;BME280;19511;42.682;23.332;2023-03-04T04:18:32;95085.66;;;3.23;100.00
33155;BME280;19511;42.682;23.332;2023-03-04T04:20:57;95100.91;;;3.24;100.00
33155;BME280;19511;42.682;23.332;2023-03-04T04:23:25;95107.22;;;3.29;100.00
33155;BME280;19511;42.682;23.332;2023-03-04T04:25:58;95096.72;;;3.31;100.00
33155;BME280;19511;42.682;23.332;2023-03-04T04:28:26;94983.28;;;2.51;100.00
33155;BME280;19511;42.682;23.332;2023-03-04T04:31:00;95091.56;;;3.06;100.00
33155;BME280;19511;42.682;23.332;2023-03-04T04:33:25;95092.47;;;3.10;100.00
33155;BME280;19511;42.682;23.332;2023-03-04T04:35:51;95103.97;;;3.00;100.00
33155;BME280;19511;42.682;23.332;2023-03-04T04:38:16;95067.03;;;2.86;100.00
33155;BME280;19511;42.682;23.332;2023-03-04T04:40:42;95095.19;;;3.10;100.00
33155;BME280;19511;42.682;23.332;2023-03-04T04:43:07;95069.59;;;2.99;100.00
33155;BME280;19511;42.682;23.332;2023-03-04T04:45:33;95096.81;;;3.15;100.00
33155;BME280;19511;42.682;23.332;2023-03-04T04:47:59;95093.16;;;3.07;100.00
33155;BME280;19511;42.682;23.332;2023-03-04T04:50:25;94986.63;;;2.41;100.00
33155;BME280;19511;42.682;23.332;2023-03-04T04:52:51;94999.88;;;2.62;100.00
33155;BME280;19511;42.682;23.332;2023-03-04T04:55:16;95084.81;;;3.19;100.00
33155;BME280;19511;42.682;23.332;2023-03-04T04:57:42;95104.78;;;3.23;100.00
33155;BME280;19511;42.682;23.332;2023-03-04T05:00:10;95093.91;;;3.04;100.00
33155;BME280;19511;42.682;23.332;2023-03-04T05:02:36;95093.84;;;3.00;100.00
33155;BME280;19511;42.682;23.332;2023-03-04T05:05:05;94984.03;;;2.28;100.00
33155;BME280;19511;42.682;23.332;2023-03-04T05:07:35;95116.63;;;3.08;100.00
33155;BME280;19511;42.682;23.332;2023-03-04T05:10:02;95124.38;;;3.06;100.00
33155;BME280;19511;42.682;23.332;2023-03-04T05:12:27;95123.44;;;3.18;100.00
33155;BME280;19511;42.682;23.332;2023-03-04T05:14:53;95023.53;;;2.54;100.00
33155;BME280;19511;42.682;23.332;2023-03-04T05:17:18;95119.56;;;3.19;100.00
33155;BME280;19511;42.682;23.332;2023-03-04T05:19:43;95130.22;;;3.27;100.00
33155;BME280;19511;42.682;23.332;2023-03-04T05:22:09;95018.94;;;2.58;100.00
33155;BME280;19511;42.682;23.332;2023-03-04T05:24:34;95109.94;;;3.29;100.00
33155;BME280;19511;42.682;23.332;2023-03-04T05:27:00;95134.38;;;3.41;100.00
33155;BME280;19511;42.682;23.332;2023-03-04T05:29:26;95133.94;;;3.39;100.00
33155;BME280;19511;42.682;23.332;2023-03-04T05:31:52;95114.00;;;3.15;100.00
33155;BME280;19511;42.682;23.332;2023-03-04T05:34:17;95135.47;;;3.36;100.00
33155;BME280;19511;42.682;23.332;2023-03-04T05:36:43;95145.06;;;3.50;100.00
33155;BME280;19511;42.682;23.332;2023-03-04T05:39:09;95131.41;;;3.50;100.00
33155;BME280;19511;42.682;23.332;2023-03-04T05:41:35;95136.19;;;3.56;100.00
33155;BME280;19511;42.682;23.332;2023-03-04T05:44:00;95032.00;;;2.92;100.00
33155;BME280;19511;42.682;23.332;2023-03-04T05:46:27;95015.28;;;2.93;100.00
33155;BME280;19511;42.682;23.332;2023-03-04T05:48:53;95029.59;;;3.10;100.00
33155;BME280;19511;42.682;23.332;2023-03-04T05:51:20;95163.34;;;3.92;100.00
33155;BME280;19511;42.682;23.332;2023-03-04T05:53:45;95139.31;;;4.05;100.00
33155;BME280;19511;42.682;23.332;2023-03-04T05:56:14;95133.50;;;4.10;100.00
33155;BME280;19511;42.682;23.332;2023-03-04T05:58:40;95139.59;;;4.23;100.00
33155;BME280;19511;42.682;23.332;2023-03-04T06:01:06;95125.97;;;4.30;100.00
33155;BME280;19511;42.682;23.332;2023-03-04T06:03:32;95154.97;;;4.62;100.00
33155;BME280;19511;42.682;23.332;2023-03-04T06:05:57;95153.16;;;4.73;100.00
33155;BME280;19511;42.682;23.332;2023-03-04T06:08:23;95157.94;;;4.80;100.00
33155;BME280;19511;42.682;23.332;2023-03-04T06:10:52;95108.50;;;4.38;100.00
33155;BME280;19511;42.682;23.332;2023-03-04T06:13:18;95047.63;;;3.91;100.00
33155;BME280;19511;42.682;23.332;2023-03-04T06:15:43;95157.53;;;4.78;100.00
33155;BME280;19511;42.682;23.332;2023-03-04T06:18:09;95044.75;;;4.11;100.00
33155;BME280;19511;42.682;23.332;2023-03-04T06:20:34;95046.66;;;4.07;100.00
33155;BME280;19511;42.682;23.332;2023-03-04T06:23:03;95060.47;;;4.14;100.00
33155;BME280;19511;42.682;23.332;2023-03-04T06:25:29;95156.78;;;4.81;100.00
33155;BME280;19511;42.682;23.332;2023-03-04T06:27:55;95150.50;;;4.80;100.00
33155;BME280;19511;42.682;23.332;2023-03-04T06:30:20;95166.09;;;4.76;100.00
33155;BME280;19511;42.682;23.332;2023-03-04T06:32:46;95170.09;;;4.82;100.00
33155;BME280;19511;42.682;23.332;2023-03-04T06:35:14;95130.84;;;4.74;100.00
33155;BME280;19511;42.682;23.332;2023-03-04T06:37:39;95163.72;;;5.05;100.00
33155;BME280;19511;42.682;23.332;2023-03-04T06:40:06;95064.13;;;4.56;100.00
33155;BME280;19511;42.682;23.332;2023-03-04T06:42:33;95160.09;;;5.31;100.00
33155;BME280;19511;42.682;23.332;2023-03-04T06:44:58;95061.53;;;4.70;100.00
33155;BME280;19511;42.682;23.332;2023-03-04T06:47:24;95166.56;;;5.50;100.00
33155;BME280;19511;42.682;23.332;2023-03-04T06:49:49;95149.56;;;5.37;100.00
33155;BME280;19511;42.682;23.332;2023-03-04T06:52:15;95168.34;;;5.35;100.00
33155;BME280;19511;42.682;23.332;2023-03-04T06:54:40;95138.34;;;5.12;100.00
33155;BME280;19511;42.682;23.332;2023-03-04T06:57:06;95170.72;;;5.36;100.00
33155;BME280;19511;42.682;23.332;2023-03-04T06:59:31;95075.84;;;4.90;100.00
33155;BME280;19511;42.682;23.332;2023-03-04T07:01:57;95172.13;;;5.61;100.00
33155;BME280;19511;42.682;23.332;2023-03-04T07:04:22;95152.84;;;5.53;100.00
33155;BME280;19511;42.682;23.332;2023-03-04T07:06:49;95181.19;;;5.65;100.00
33155;BME280;19511;42.682;23.332;2023-03-04T07:09:15;95177.28;;;5.66;100.00
33155;BME280;19511;42.682;23.332;2023-03-04T07:11:40;95160.88;;;5.73;100.00
33155;BME280;19511;42.682;23.332;2023-03-04T07:14:05;95162.56;;;5.85;100.00
33155;BME280;19511;42.682;23.332;2023-03-04T07:16:31;95137.72;;;5.70;100.00
33155;BME280;19511;42.682;23.332;2023-03-04T07:18:56;95161.72;;;5.81;100.00
33155;BME280;19511;42.682;23.332;2023-03-04T07:21:22;95079.03;;;5.37;100.00
33155;BME280;19511;42.682;23.332;2023-03-04T07:23:47;95168.06;;;5.88;100.00
33155;BME280;19511;42.682;23.332;2023-03-04T07:26:13;95059.75;;;5.27;100.00
33155;BME280;19511;42.682;23.332;2023-03-04T07:28:40;95157.03;;;5.81;100.00
33155;BME280;19511;42.682;23.332;2023-03-04T07:31:20;95043.59;;;5.14;100.00
33155;BME280;19511;42.682;23.332;2023-03-04T07:33:46;95179.50;;;5.98;100.00
33155;BME280;19511;42.682;23.332;2023-03-04T07:36:12;95134.19;;;5.70;100.00
33155;BME280;19511;42.682;23.332;2023-03-04T07:38:42;95167.66;;;5.86;100.00
33155;BME280;19511;42.682;23.332;2023-03-04T07:41:07;95164.59;;;5.95;100.00
33155;BME280;19511;42.682;23.332;2023-03-04T07:43:33;95104.34;;;5.65;100.00
33155;BME280;19511;42.682;23.332;2023-03-04T07:45:59;95128.88;;;5.88;100.00
33155;BME280;19511;42.682;23.332;2023-03-04T07:48:26;95165.19;;;6.19;100.00
33155;BME280;19511;42.682;23.332;2023-03-04T07:51:05;95178.91;;;6.15;100.00
33155;BME280;19511;42.682;23.332;2023-03-04T07:53:32;95070.47;;;5.43;100.00
33155;BME280;19511;42.682;23.332;2023-03-04T07:55:57;95169.78;;;6.04;100.00
33155;BME280;19511;42.682;23.332;2023-03-04T07:58:23;95157.22;;;6.03;100.00
33155;BME280;19511;42.682;23.332;2023-03-04T08:00:49;95165.22;;;6.23;100.00
33155;BME280;19511;42.682;23.332;2023-03-04T08:03:14;95151.56;;;6.30;100.00
33155;BME280;19511;42.682;23.332;2023-03-04T08:05:40;95162.19;;;6.35;100.00
33155;BME280;19511;42.682;23.332;2023-03-04T08:08:05;95150.75;;;6.29;100.00
33155;BME280;19511;42.682;23.332;2023-03-04T08:10:30;95161.84;;;6.44;100.00
33155;BME280;19511;42.682;23.332;2023-03-04T08:12:56;95142.19;;;6.38;100.00
33155;BME280;19511;42.682;23.332;2023-03-04T08:15:21;95162.31;;;6.57;100.00
33155;BME280;19511;42.682;23.332;2023-03-04T08:17:47;95173.34;;;6.64;100.00
33155;BME280;19511;42.682;23.332;2023-03-04T08:20:12;95163.56;;;6.70;100.00
33155;BME280;19511;42.682;23.332;2023-03-04T08:22:38;95163.16;;;6.64;100.00
33155;BME280;19511;42.682;23.332;2023-03-04T08:25:03;95059.56;;;5.98;100.00
33155;BME280;19511;42.682;23.332;2023-03-04T08:27:29;95162.78;;;6.69;100.00
33155;BME280;19511;42.682;23.332;2023-03-04T08:29:54;95069.44;;;6.14;100.00
33155;BME280;19511;42.682;23.332;2023-03-04T08:32:20;95104.81;;;6.23;100.00
33155;BME280;19511;42.682;23.332;2023-03-04T08:34:46;95164.28;;;6.60;100.00
33155;BME280;19511;42.682;23.332;2023-03-04T08:37:11;95159.53;;;6.53;100.00
33155;BME280;19511;42.682;23.332;2023-03-04T08:39:37;95161.56;;;6.63;100.00
33155;BME280;19511;42.682;23.332;2023-03-04T08:42:02;95151.31;;;6.57;100.00
33155;BME280;19511;42.682;23.332;2023-03-04T08:44:28;95148.00;;;6.29;100.00
33155;BME280;19511;42.682;23.332;2023-03-04T08:46:53;95160.63;;;6.37;100.00
33155;BME280;19511;42.682;23.332;2023-03-04T08:49:19;95146.03;;;6.26;100.00
33155;BME280;19511;42.682;23.332;2023-03-04T08:51:44;95160.47;;;6.19;100.00
33155;BME280;19511;42.682;23.332;2023-03-04T08:54:10;95154.19;;;6.15;100.00
33155;BME280;19511;42.682;23.332;2023-03-04T08:56:35;95050.31;;;5.69;100.00
33155;BME280;19511;42.682;23.332;2023-03-04T08:59:01;95148.84;;;6.37;100.00
33155;BME280;19511;42.682;23.332;2023-03-04T09:01:26;95154.47;;;6.59;100.00
33155;BME280;19511;42.682;23.332;2023-03-04T09:03:51;95056.06;;;6.05;100.00
33155;BME280;19511;42.682;23.332;2023-03-04T09:06:17;95139.63;;;6.70;100.00
33155;BME280;19511;42.682;23.332;2023-03-04T09:08:45;95153.34;;;6.74;100.00
33155;BME280;19511;42.682;23.332;2023-03-04T09:11:12;95138.13;;;6.88;100.00
33155;BME280;19511;42.682;23.332;2023-03-04T09:13:37;95125.13;;;6.77;100.00
33155;BME280;19511;42.682;23.332;2023-03-04T09:16:11;95140.91;;;7.02;100.00
33155;BME280;19511;42.682;23.332;2023-03-04T09:18:37;95120.53;;;7.14;100.00
33155;BME280;19511;42.682;23.332;2023-03-04T09:21:03;95098.53;;;7.25;100.00
33155;BME280;19511;42.682;23.332;2023-03-04T09:23:29;95117.84;;;7.54;100.00
33155;BME280;19511;42.682;23.332;2023-03-04T09:25:54;95113.94;;;7.73;100.00
33155;BME280;19511;42.682;23.332;2023-03-04T09:28:20;95123.41;;;7.82;100.00
33155;BME280;19511;42.682;23.332;2023-03-04T09:30:45;94998.69;;;6.92;100.00
33155;BME280;19511;42.682;23.332;2023-03-04T09:33:12;95112.38;;;7.90;100.00
33155;BME280;19511;42.682;23.332;2023-03-04T09:35:38;95114.72;;;8.06;100.00
33155;BME280;19511;42.682;23.332;2023-03-04T09:38:03;95103.34;;;8.00;100.00
33155;BME280;19511;42.682;23.332;2023-03-04T09:40:49;95104.50;;;8.03;100.00
33155;BME280;19511;42.682;23.332;2023-03-04T09:43:24;95108.44;;;7.76;100.00
33155;BME280;19511;42.682;23.332;2023-03-04T09:46:02;95105.69;;;7.62;100.00
33155;BME280;19511;42.682;23.332;2023-03-04T09:48:39;95110.41;;;7.72;100.00
33155;BME280;19511;42.682;23.332;2023-03-04T09:56:27;95104.13;;;7.82;100.00
33155;BME280;19511;42.682;23.332;2023-03-04T10:01:48;95008.94;;;6.98;100.00
33155;BME280;19511;42.682;23.332;2023-03-04T10:06:50;95095.84;;;7.75;100.00
33155;BME280;19511;42.682;23.332;2023-03-04T10:09:48;95095.03;;;7.57;100.00
33155;BME280;19511;42.682;23.332;2023-03-04T10:12:22;95079.75;;;7.59;100.00
33155;BME280;19511;42.682;23.332;2023-03-04T10:15:22;95088.75;;;7.74;100.00
33155;BME280;19511;42.682;23.332;2023-03-04T10:17:51;95075.00;;;7.60;100.00
33155;BME280;19511;42.682;23.332;2023-03-04T10:20:31;95075.78;;;7.67;100.00
33155;BME280;19511;42.682;23.332;2023-03-04T10:23:00;94948.81;;;7.04;100.00
33155;BME280;19511;42.682;23.332;2023-03-04T10:25:31;94965.28;;;6.97;100.00
33155;BME280;19511;42.682;23.332;2023-03-04T10:28:04;95072.25;;;7.81;100.00
33155;BME280;19511;42.682;23.332;2023-03-04T10:33:28;95043.16;;;7.95;100.00
33155;BME280;19511;42.682;23.332;2023-03-04T10:35:59;95064.38;;;8.01;100.00
33155;BME280;19511;42.682;23.332;2023-03-04T10:38:25;95038.00;;;8.04;100.00
33155;BME280;19511;42.682;23.332;2023-03-04T10:40:53;95056.00;;;8.41;100.00
33155;BME280;19511;42.682;23.332;2023-03-04T10:43:20;95031.28;;;8.20;100.00
33155;BME280;19511;42.682;23.332;2023-03-04T10:45:46;95043.09;;;8.13;100.00
33155;BME280;19511;42.682;23.332;2023-03-04T10:48:25;95028.91;;;8.22;100.00
33155;BME280;19511;42.682;23.332;2023-03-04T10:50:51;95020.31;;;8.05;100.00
33155;BME280;19511;42.682;23.332;2023-03-04T10:53:38;95035.13;;;8.40;100.00
33155;BME280;19511;42.682;23.332;2023-03-04T11:01:52;95007.66;;;8.26;100.00
33155;BME280;19511;42.682;23.332;2023-03-04T11:04:19;95012.34;;;8.32;100.00
33155;BME280;19511;42.682;23.332;2023-03-04T11:06:47;94995.97;;;7.75;100.00
33155;BME280;19511;42.682;23.332;2023-03-04T11:09:39;95013.63;;;7.99;100.00
33155;BME280;19511;42.682;23.332;2023-03-04T11:12:11;95009.28;;;8.09;100.00
33155;BME280;19511;42.682;23.332;2023-03-04T11:14:45;94995.88;;;8.07;100.00
33155;BME280;19511;42.682;23.332;2023-03-04T11:17:18;94999.38;;;8.26;100.00
33155;BME280;19511;42.682;23.332;2023-03-04T11:22:39;94993.06;;;8.29;100.00
33155;BME280;19511;42.682;23.332;2023-03-04T11:25:13;94983.19;;;8.39;100.00
33155;BME280;19511;42.682;23.332;2023-03-04T11:31:00;94974.94;;;8.46;100.00
33155;BME280;19511;42.682;23.332;2023-03-04T11:39:23;94958.72;;;8.59;100.00
33155;BME280;19511;42.682;23.332;2023-03-04T11:42:04;94970.31;;;8.95;100.00
33155;BME280;19511;42.682;23.332;2023-03-04T11:44:31;94964.16;;;8.70;100.00
33155;BME280;19511;42.682;23.332;2023-03-04T12:01:05;94949.41;;;9.02;100.00
33155;BME280;19511;42.682;23.332;2023-03-04T12:28:56;94924.56;;;9.02;100.00
33155;BME280;19511;42.682;23.332;2023-03-04T12:34:27;94926.03;;;9.17;100.00
33155;BME280;19511;42.682;23.332;2023-03-04T12:42:57;94903.56;;;8.59;100.00
33155;BME280;19511;42.682;23.332;2023-03-04T12:45:29;94914.06;;;8.82;100.00
33155;BME280;19511;42.682;23.332;2023-03-04T12:51:06;94903.41;;;8.84;100.00
33155;BME280;19511;42.682;23.332;2023-03-04T12:56:43;94907.34;;;8.87;100.00
33155;BME280;19511;42.682;23.332;2023-03-04T12:59:18;94804.50;;;8.30;100.00
33155;BME280;19511;42.682;23.332;2023-03-04T13:02:25;94799.69;;;8.41;100.00
33155;BME280;19511;42.682;23.332;2023-03-04T13:07:40;94877.25;;;9.03;100.00
33155;BME280;19511;42.682;23.332;2023-03-04T13:10:17;94861.50;;;9.00;100.00
33155;BME280;19511;42.682;23.332;2023-03-04T13:16:40;94863.94;;;8.91;100.00
33155;BME280;19511;42.682;23.332;2023-03-04T13:25:31;94863.19;;;8.90;100.00
33155;BME280;19511;42.682;23.332;2023-03-04T13:28:16;94854.06;;;8.93;100.00
33155;BME280;19511;42.682;23.332;2023-03-04T13:36:00;94862.97;;;9.15;100.00
33155;BME280;19511;42.682;23.332;2023-03-04T13:38:35;94851.06;;;9.22;100.00
33155;BME280;19511;42.682;23.332;2023-03-04T13:41:23;94852.53;;;9.34;100.00
33155;BME280;19511;42.682;23.332;2023-03-04T13:43:59;94838.69;;;8.96;100.00
33155;BME280;19511;42.682;23.332;2023-03-04T13:51:36;94844.47;;;9.09;100.00
33155;BME280;19511;42.682;23.332;2023-03-04T13:54:15;94757.06;;;8.57;100.00
33155;BME280;19511;42.682;23.332;2023-03-04T13:57:15;94841.84;;;8.98;100.00
33155;BME280;19511;42.682;23.332;2023-03-04T13:59:45;94838.63;;;9.03;100.00
33155;BME280;19511;42.682;23.332;2023-03-04T14:02:20;94836.91;;;9.17;100.00
33155;BME280;19511;42.682;23.332;2023-03-04T14:07:29;94835.44;;;9.08;100.00
33155;BME280;19511;42.682;23.332;2023-03-04T14:12:47;94830.06;;;8.94;100.00
33155;BME280;19511;42.682;23.332;2023-03-04T14:17:46;94830.84;;;8.91;100.00
33155;BME280;19511;42.682;23.332;2023-03-04T14:23:01;94815.94;;;8.81;100.00
33155;BME280;19511;42.682;23.332;2023-03-04T14:28:08;94820.00;;;9.14;100.00
33155;BME280;19511;42.682;23.332;2023-03-04T14:30:59;94811.72;;;9.14;100.00
33155;BME280;19511;42.682;23.332;2023-03-04T14:33:29;94812.69;;;9.35;100.00
33155;BME280;19511;42.682;23.332;2023-03-04T14:36:00;94810.56;;;9.50;100.00
33155;BME280;19511;42.682;23.332;2023-03-04T14:38:34;94811.78;;;9.45;100.00
33155;BME280;19511;42.682;23.332;2023-03-04T14:41:28;94782.84;;;9.23;100.00
33155;BME280;19511;42.682;23.332;2023-03-04T14:44:06;94808.13;;;9.56;100.00
33155;BME280;19511;42.682;23.332;2023-03-04T14:46:52;94788.53;;;9.46;100.00
33155;BME280;19511;42.682;23.332;2023-03-04T14:49:27;94799.38;;;9.61;100.00
33155;BME280;19511;42.682;23.332;2023-03-04T14:51:58;94801.19;;;9.44;100.00
33155;BME280;19511;42.682;23.332;2023-03-04T14:54:40;94787.22;;;9.55;100.00
33155;BME280;19511;42.682;23.332;2023-03-04T14:57:37;94787.69;;;9.50;100.00
33155;BME280;19511;42.682;23.332;2023-03-04T15:03:24;94785.56;;;9.30;100.00
33155;BME280;19511;42.682;23.332;2023-03-04T15:06:17;94783.00;;;9.46;100.00
33155;BME280;19511;42.682;23.332;2023-03-04T15:09:30;94783.66;;;9.23;100.00